Aérodrome de Castelnaudary-Villeneuve

LFMW · Aude, Occitanie, 法国

METAR的历史 LFMW · Aérodrome de Castelnaudary-Villeneuve

下面你可以看到过去几天的METARs。 选择年份以浏览从2007年开始的旧METAR。

2022年11月29日

时间 代码 天气 温度 能见度 天花板 METAR/SPECI
22:30
V
7 °C 10 km+ - 260° 260° 6 kt METAR LFMK 292130Z AUTO 26006KT 220V290 9999 NSC 07/05 Q1019
22:00
V
7 °C 10 km+ - 250° 250° 8 kt METAR LFMK 292100Z AUTO 25008KT 220V280 9999 NSC 07/06 Q1019
21:30
V
7 °C 10 km+ - 260° 260° 8 kt METAR LFMK 292030Z AUTO 26008KT 230V290 9999 NSC 07/05 Q1019
21:00
V
8 °C 10 km+ - 250° 250° 7 kt METAR LFMK 292000Z AUTO 25007KT 220V290 9999 NSC 08/06 Q1019
20:30
V
8 °C 10 km+ - 250° 250° 8 kt METAR LFMK 291930Z AUTO 25008KT 9999 NSC 08/06 Q1019
20:00
V
8 °C 10 km+ - 250° 250° 7 kt METAR LFMK 291900Z AUTO 25007KT 230V300 9999 NSC 08/06 Q1019
19:30
V
8 °C 10 km+ - 260° 260° 9 kt METAR LFMK 291830Z AUTO 26009KT 9999 NSC 08/06 Q1019
19:00
V
8 °C 10 km+ - 260° 260° 9 kt METAR LFMK 291800Z AUTO 26009KT 220V290 9999 NSC 08/06 Q1019 NOSIG
18:30
V
8 °C 10 km+ - 250° 250° 7 kt METAR LFMK 291730Z AUTO 25007KT 9999 NSC 08/06 Q1019 NOSIG
18:00
V
8 °C 10 km+ - 280° 280° 6 kt METAR LFMK 291700Z AUTO 28006KT 9999 NSC 08/06 Q1019 NOSIG
17:30
V
9 °C 10 km+ - 290° 290° 8 kt METAR LFMK 291630Z AUTO 29008KT 9999 NSC 09/06 Q1019 NOSIG
17:00
V
10 °C 10 km+ - 290° 290° 9 kt METAR LFMK 291600Z AUTO 29009KT 9999 NSC 10/05 Q1018 NOSIG
16:30
V
11 °C 10 km+ - 300° 300° 9 kt METAR LFMK 291530Z AUTO 30009KT 9999 NSC 11/06 Q1018 NOSIG
16:00
V
11 °C 10 km+ - 300° 300° 13 kt METAR LFMK 291500Z AUTO 30013KT 9999 NSC 11/05 Q1018 NOSIG
15:30
V
12 °C 10 km+ - 300° 300° 11 kt METAR LFMK 291430Z AUTO 30011KT 9999 NSC 12/06 Q1018 NOSIG
15:00
V
11 °C 10 km+ - 310° 310° 14 kt METAR LFMK 291400Z AUTO 31014KT 9999 ///TCU 11/06 Q1018 BECMG NSC
14:30
V
12 °C 10 km+ - 300° 300° 13 kt METAR LFMK 291330Z AUTO 30013KT 270V340 9999 FEW050 12/06 Q1018 NOSIG
14:00
V
12 °C 10 km+ 5.000 ft 300° 300° 14 kt METAR LFMK 291300Z AUTO 30014KT 9999 FEW026/// BKN050/// //////TCU 12/07 Q1019 TEMPO 4000 -SHRA BECMG NSC
13:30
V
13 °C 10 km+ 5.400 ft 290° 290° 13 kt METAR LFMK 291230Z AUTO 29013KT 9999 SCT046/// BKN054/// BKN064/// ///TCU 13/08 Q1019 TEMPO 4000 -SHRA BECMG NSC
13:00
V
11 °C 10 km+ 4.900 ft 290° 290° 11 kt METAR LFMK 291200Z AUTO 29011KT 9999 FEW015/// BKN049/// OVC060/// ///TCU 11/08 Q1019 TEMPO 4000 -SHRA BKN011
12:30
M
11 °C 10 km+ 1.800 ft 290° 290° 11 kt METAR LFMK 291130Z AUTO 29011KT 9999 BKN018/// BKN027/// OVC036/// //////TCU 11/09 Q1019 TEMPO 4000 -SHRA BKN011
12:00
M
10 °C 10 km+ 2.000 ft 280° 280° 10 kt METAR LFMK 291100Z AUTO 28010KT 9999 FEW007 BKN020 OVC049 10/09 Q1019 TEMPO 4000 -SHRA BKN011
11:30
V
10 °C 10 km+ 4.600 ft 270° 270° 10 kt METAR LFMK 291030Z AUTO 27010KT 240V300 9999 FEW007 BKN046 OVC052 10/09 Q1019 TEMPO 4000 -SHRA BKN011
11:00
V
9 °C 10 km+ 4.300 ft 270° 270° 10 kt METAR LFMK 291000Z AUTO 27010KT 9999 BKN043/// OVC049/// ///CB 09/09 Q1019 TEMPO 4000 -SHRA BKN011
10:30
V
9 °C 10 km+ 6.600 ft 270° 270° 9 kt METAR LFMK 290930Z AUTO 27009KT 240V300 9999 FEW049/// BKN066/// OVC076/// //////CB 09/08 Q1019 TEMPO 4000 -SHRA BKN011
10:00
V
9 °C 10 km+ 4.700 ft 280° 280° 9 kt METAR LFMK 290900Z AUTO 28009KT 9999 -RA BKN047/// BKN058/// OVC070/// ///CB 09/08 Q1019 TEMPO 4000 -SHRA BKN011
09:30
V
9 °C 10 km+ 4.700 ft 280° 280° 9 kt METAR LFMK 290830Z AUTO 28009KT 9999 -RA SCT038/// BKN047/// OVC056/// ///CB 09/08 Q1019 TEMPO 4000 -SHRA BKN014
09:00
M
9 °C 10 km+ 2.100 ft 280° 280° 8 kt METAR LFMK 290800Z AUTO 28008KT 9999 -RA SCT012/// BKN021/// BKN041/// ///TCU 09/08 Q1019 TEMPO 4000 -SHRA BKN014
08:30
I
8 °C 4,8 km 1.100 ft 290° 290° 8 kt METAR LFMK 290730Z AUTO 29008KT 4800 -RA BR BKN011/// OVC017/// //////TCU 08/08 Q1019 TEMPO BKN014
08:00
M
8 °C 10 km+ 1.000 ft 270° 270° 7 kt METAR LFMK 290700Z AUTO 27007KT 9999 OVC010/// ///CB 08/08 Q1019 TEMPO 4000 -SHRA BKN014
07:30
I
8 °C 10 km+ 900 ft 270° 270° 9 kt METAR LFMK 290630Z AUTO 27009KT 9999 BKN009/// BKN015/// BKN024/// ///CB 08/08 Q1019 TEMPO 4000 -SHRA BKN014
07:00
M
8 °C 10 km+ 2.000 ft 270° 270° 9 kt METAR LFMK 290600Z AUTO 27009KT 9999 -RA BKN020/// BKN029/// BKN039/// ///TCU 08/08 Q1018 TEMPO 4000 -SHRA BKN014
06:30
M
8 °C 10 km+ 1.900 ft 280° 280° 8 kt METAR LFMK 290530Z AUTO 28008KT 9999 BKN019/// BKN039/// OVC060/// //////TCU 08/07 Q1018 TEMPO 4000 -SHRA BKN014
06:00
V
8 °C 10 km+ 3.200 ft 280° 280° 10 kt METAR LFMK 290500Z AUTO 28010KT 9999 SCT019/// BKN032/// BKN060/// //////TCU 08/07 Q1018 TEMPO 4000 -SHRA BKN014
05:30
M
8 °C 10 km+ 1.200 ft 280° 280° 10 kt METAR LFMK 290430Z AUTO 28010KT 9999 BKN012/// ///TCU 08/07 Q1018 TEMPO 4000 -SHRA BKN014
05:00
M
8 °C 10 km+ 1.300 ft 280° 280° 8 kt METAR LFMK 290400Z AUTO 28008KT 9999 OVC013/// //////TCU 08/07 Q1018 TEMPO 4000 -SHRA BKN014
04:30
M
8 °C 10 km+ 1.500 ft 280° 280° 9 kt METAR LFMK 290330Z AUTO 28009KT 9999 BKN015 BKN022 BKN056 08/07 Q1018 TEMPO 4000 -SHRA BKN014
04:00
M
8 °C 10 km+ 2.000 ft 280° 280° 9 kt METAR LFMK 290300Z AUTO 28009KT 9999 BKN020 BKN031 08/07 Q1018
03:30
M
8 °C 10 km+ 2.100 ft 280° 280° 8 kt METAR LFMK 290230Z AUTO 28008KT 9999 BKN021 OVC052 08/07 Q1018
03:00
V
8 °C 10 km+ 4.600 ft 270° 270° 8 kt METAR LFMK 290200Z AUTO 27008KT 9999 -RA FEW023 SCT030 BKN046 08/07 Q1018
02:30
V
8 °C 10 km+ 5.800 ft 270° 270° 9 kt METAR LFMK 290130Z AUTO 27009KT 9999 FEW024 SCT048 BKN058 08/06 Q1018
02:00
V
8 °C 10 km+ 4.800 ft 280° 280° 8 kt METAR LFMK 290100Z AUTO 28008KT 9999 SCT035 BKN048 OVC060 08/07 Q1018
01:30
V
8 °C 10 km+ - 270° 270° 9 kt METAR LFMK 290030Z AUTO 27009KT 9999 SCT024 SCT032 08/06 Q1019
01:00
M
8 °C 10 km+ 2.100 ft 280° 280° 8 kt METAR LFMK 290000Z AUTO 28008KT 9999 BKN021 BKN027 08/07 Q1019
00:30
V
9 °C 10 km+ - 280° 280° 10 kt METAR LFMK 282330Z AUTO 28010KT 9999 FEW017 09/07 Q1019
00:00
M
8 °C 10 km+ 2.400 ft 290° 290° 6 kt METAR LFMK 282300Z AUTO 29006KT 9999 BKN024 08/06 Q1019

2022年11月28日

时间 代码 天气 温度 能见度 天花板 METAR/SPECI
23:30
V
9 °C 10 km+ - 280° 280° 8 kt METAR LFMK 282230Z AUTO 28008KT 9999 SCT024 09/06 Q1019
23:00
V
9 °C 10 km+ - 270° 270° 8 kt METAR LFMK 282200Z AUTO 27008KT 240V300 9999 FEW031 09/06 Q1019
22:30
V
10 °C 10 km+ 3.100 ft 270° 270° 10 kt METAR LFMK 282130Z AUTO 27010KT 240V310 9999 BKN031 BKN038 BKN049 10/06 Q1019
22:00
V
10 °C 10 km+ 3.700 ft 270° 270° 10 kt METAR LFMK 282100Z AUTO 27010KT 240V300 9999 SCT030 BKN037 BKN052 10/06 Q1019
21:30
V
10 °C 10 km+ 3.600 ft 270° 270° 10 kt METAR LFMK 282030Z AUTO 27010KT 240V300 9999 OVC036 10/06 Q1019
21:00
V
10 °C 10 km+ 3.400 ft 280° 280° 9 kt METAR LFMK 282000Z AUTO 28009KT 9999 OVC034/// //////CB 10/06 Q1019
20:30
V
10 °C 10 km+ 4.600 ft 280° 280° 10 kt METAR LFMK 281930Z AUTO 28010KT 9999 SCT037/// BKN046/// BKN056/// //////TCU 10/06 Q1018
20:00
V
9 °C 10 km+ - 280° 280° 9 kt METAR LFMK 281900Z AUTO 28009KT 9999 FEW033 SCT040 09/07 Q1018
19:30
V
10 °C 10 km+ - 280° 280° 10 kt METAR LFMK 281830Z AUTO 28010KT 9999 SCT054 10/07 Q1018
19:00
V
10 °C 10 km+ 5.000 ft 280° 280° 10 kt METAR LFMK 281800Z AUTO 28010KT 250V310 9999 FEW034 BKN050 OVC066 10/07 Q1018 TEMPO BKN030TCU
18:30
V
11 °C 10 km+ 4.800 ft 270° 270° 14 kt METAR LFMK 281730Z AUTO 27014KT 9999 FEW028/// SCT041/// BKN048/// ///CB 11/07 Q1018 NOSIG
18:00
V
11 °C 10 km+ 5.000 ft 270° 270° 13 kt METAR LFMK 281700Z AUTO 27013KT 9999 FEW025/// SCT034/// OVC050/// ///CB 11/07 Q1018 TEMPO 4000 SHRA BKN014 BKN025TCU
17:30
V
11 °C 10 km+ - 280° 280° 12 kt METAR LFMK 281630Z AUTO 28012KT 9999 FEW008/// SCT037/// //////TCU 11/07 Q1018 TEMPO 4000 SHRA BKN014 BKN025TCU
17:00
V
11 °C 10 km+ 3.600 ft 270° 270° 14 kt METAR LFMK 281600Z AUTO 27014KT 9999 SCT026/// OVC036/// ///CB 11/08 Q1017 TEMPO 4000 SHRA BKN014 BKN025TCU
16:30
V
12 °C 10 km+ 6.200 ft 280° 280° 9 kt METAR LFMK 281530Z AUTO 28009KT 240V300 9999 FEW025/// SCT030/// BKN062/// //////TCU 12/09 Q1017 TEMPO 4000 SHRA BKN014 BKN025TCU
16:00
V
11 °C 10 km+ 6.200 ft Var 000° 0 kt METAR LFMK 281500Z AUTO /////KT 9999 FEW039/// SCT052/// BKN062/// ///CB 11/09 Q1017
15:30
M
12 °C 10 km+ 2.700 ft 280° 280° 13 kt METAR LFMK 281430Z AUTO 28013KT 9999 BKN027/// BKN044/// BKN066/// ///CB 12/08 Q1017 TEMPO 28016G26KT
15:00
V
12 °C 10 km+ 6.000 ft 280° 280° 14 kt METAR LFMK 281400Z AUTO 28014KT 9999 SCT026 SCT040 BKN060 12/09 Q1017 TEMPO 28016G26KT BKN030TCU
14:30
V
12 °C 10 km+ 3.600 ft 280° 280° 12 kt METAR LFMK 281330Z AUTO 28012KT 9999 FEW021 SCT027 BKN036 12/09 Q1017 TEMPO 28016G26KT BKN030TCU
14:00
M
12 °C 10 km+ 2.700 ft 280° 280° 14 kt METAR LFMK 281300Z AUTO 28014KT 9999 SCT022 BKN027 BKN034 12/08 Q1017 TEMPO 28016G26KT BKN030TCU
13:30
M
11 °C 10 km+ 2.700 ft 280° 280° 15 kt METAR LFMK 281230Z AUTO 28015KT 9999 BKN027 OVC034 11/08 Q1018 TEMPO 28016G26KT BKN030TCU
13:00
M
11 °C 10 km+ 1.800 ft 280° 280° 13 kt METAR LFMK 281200Z AUTO 28013KT 9999 BKN018 BKN024 OVC031 11/08 Q1018 TEMPO 28016G26KT BKN030TCU
12:30
M
11 °C 10 km+ 2.100 ft 280° 280° 14 kt METAR LFMK 281130Z AUTO 28014KT 9999 BKN021 OVC028 11/08 Q1018 TEMPO 28016G26KT BKN030TCU
12:00
M
10 °C 10 km+ 1.900 ft 270° 270° 14 kt METAR LFMK 281100Z AUTO 27014KT 9999 BKN019 BKN024 OVC029 10/08 Q1018 TEMPO 28016G26KT
11:30
M
10 °C 10 km+ 1.900 ft 280° 280° 13 kt METAR LFMK 281030Z AUTO 28013KT 9999 BKN019 BKN120 10/08 Q1018 TEMPO 28016G26KT
11:00
M
10 °C 10 km+ 1.900 ft 280° 280° 13 kt METAR LFMK 281000Z AUTO 28013KT 250V310 9999 OVC019 10/08 Q1018 TEMPO 28016G26KT BKN013 BKN030
10:30
M
9 °C 10 km+ 1.600 ft 280° 280° 11 kt METAR LFMK 280930Z AUTO 28011KT 9999 -RA OVC016 09/08 Q1018 TEMPO 28016G26KT BKN013 BKN030
10:00
M
9 °C 6 km 1.400 ft 270° 270° 9 kt METAR LFMK 280900Z AUTO 27009KT 6000 -RA BKN014/// BKN022/// BKN030/// //////TCU 09/08 Q1018 TEMPO 28016G26KT BECMG BKN015 BKN030
09:30
M
9 °C 10 km+ 1.800 ft 270° 270° 8 kt METAR LFMK 280830Z AUTO 27008KT 9999 -RA BKN018/// BKN027/// BKN036/// //////CB 09/08 Q1018 BECMG 29016G26KT BKN030 BKN060
09:00
V
9 °C 10 km+ 3.700 ft 280° 280° 9 kt METAR LFMK 280800Z AUTO 28009KT 9999 -RA FEW015/// BKN037/// OVC046/// //////TCU 09/08 Q1018 BECMG BKN020
08:30
V
9 °C 10 km+ 3.300 ft 280° 280° 9 kt METAR LFMK 280730Z AUTO 28009KT 9999 -RA FEW007/// SCT014/// BKN033/// //////TCU 09/08 Q1017 BECMG BKN020
08:00
M
9 °C 10 km+ 2.900 ft 280° 280° 6 kt METAR LFMK 280700Z AUTO 28006KT 9999 -RA FEW015/// BKN029/// BKN034/// //////TCU 09/08 Q1017 TEMPO BKN013
07:30
V
9 °C 10 km+ 7.600 ft 280° 280° 8 kt METAR LFMK 280630Z AUTO 28008KT 9999 -RA FEW027/// SCT056/// OVC076/// //////CB 09/08 Q1017 TEMPO BKN013
07:00
V
9 °C 10 km+ 7.000 ft 270° 270° 9 kt METAR LFMK 280600Z AUTO 27009KT 9999 -RA FEW023/// OVC070/// //////CB 09/08 Q1017 TEMPO BKN013
06:30
V
9 °C 10 km+ 3.500 ft 270° 270° 8 kt METAR LFMK 280530Z AUTO 27008KT 240V310 9999 -RA SCT020/// BKN035/// BKN056/// //////CB 09/08 Q1017 TEMPO BKN013
06:00
M
10 °C 9 km 2.000 ft 260° 260° 7 kt METAR LFMK 280500Z AUTO 26007KT 230V300 9000 RA OVC020/// //////TCU 10/08 Q1017 TEMPO BKN013 BECMG NSW
05:30
M
10 °C 10 km+ 2.100 ft 270° 270° 10 kt METAR LFMK 280430Z AUTO 27010KT 240V300 9999 -RA BKN021/// OVC054/// ///TCU 10/08 Q1017 TEMPO BKN013
05:00
V
10 °C 10 km+ 5.400 ft 270° 270° 11 kt METAR LFMK 280400Z AUTO 27011KT 9999 -RA FEW031/// SCT038/// OVC054/// //////TCU 10/08 Q1017 TEMPO BKN013
04:30
V
10 °C 10 km+ 3.700 ft 260° 260° 11 kt METAR LFMK 280330Z AUTO 26011KT 230V290 9999 -RA FEW023/// BKN037/// BKN047/// ///TCU 10/08 Q1017 TEMPO BKN013
04:00
V
10 °C 10 km+ 3.400 ft 240° 240° 4 kt METAR LFMK 280300Z AUTO 24004KT 190V280 9999 OVC034 10/09 Q1017 TEMPO BKN013
03:30
V
10 °C 10 km+ 3.300 ft 270° 270° 6 kt METAR LFMK 280230Z AUTO 27006KT 9999 FEW018 OVC033 10/09 Q1017 TEMPO BKN013
03:00
M
10 °C 10 km+ 1.600 ft 320° 320° 5 kt METAR LFMK 280200Z AUTO 32005KT 9999 OVC016 10/09 Q1017
02:30
V
9 °C 10 km+ 14.000 ft 220° 220° 3 kt METAR LFMK 280130Z AUTO 22003KT 160V280 9999 FEW032 OVC140 09/08 Q1017
02:00
V
10 °C 10 km+ 16.000 ft Var Var 3 kt METAR LFMK 280100Z AUTO VRB03KT 9999 FEW033 BKN160 OVC190 10/08 Q1016
01:30
M
10 °C 10 km+ 1.500 ft Var Var 2 kt METAR LFMK 280030Z AUTO VRB02KT 9999 BKN015 OVC022 10/09 Q1017
01:00
M
11 °C 10 km+ 1.500 ft Var Var 1 kt METAR LFMK 280000Z AUTO VRB01KT 9999 OVC015 11/09 Q1017
00:30
M
11 °C 10 km+ 1.800 ft Var Var 2 kt METAR LFMK 272330Z AUTO VRB02KT 9999 BKN018 OVC026 11/09 Q1018
00:00
M
11 °C 10 km+ 1.700 ft Var Var 2 kt METAR LFMK 272300Z AUTO VRB02KT 9999 BKN017 OVC029 11/09 Q1018

2022年11月27日

时间 代码 天气 温度 能见度 天花板 METAR/SPECI
23:30
M
11 °C 10 km+ 1.700 ft 140° 140° 3 kt METAR LFMK 272230Z AUTO 14003KT 080V220 9999 BKN017 OVC026 11/09 Q1018
23:00
M
11 °C 10 km+ 1.700 ft Var Var 2 kt METAR LFMK 272200Z AUTO VRB02KT 9999 BKN017 OVC022 11/09 Q1018
22:30
V
12 °C 10 km+ - 120° 120° 5 kt METAR LFMK 272130Z AUTO 12005KT 050V180 CAVOK 12/09 Q1018
22:00
V
12 °C 10 km+ - 090° 090° 8 kt METAR LFMK 272100Z AUTO 09008KT 060V140 CAVOK 12/09 Q1017
21:30
V
12 °C 10 km+ - 100° 100° 8 kt METAR LFMK 272030Z AUTO 10008KT 070V140 CAVOK 12/09 Q1018
21:00
V
11 °C 10 km+ - 100° 100° 8 kt METAR LFMK 272000Z AUTO 10008KT 070V130 CAVOK 11/09 Q1018
20:30
V
11 °C 10 km+ - 090° 090° 9 kt METAR LFMK 271930Z AUTO 09009KT 9999 FEW019 SCT190 11/09 Q1018
20:00
V
12 °C 10 km+ 24.000 ft 090° 090° 10 kt METAR LFMK 271900Z AUTO 09010KT 070V130 9999 SCT018 BKN240 12/09 Q1018
19:30
M
12 °C 10 km+ 2.700 ft 080° 080° 11 kt METAR LFMK 271830Z AUTO 08011KT 9999 SCT020 BKN027 12/09 Q1018 NOSIG
19:00
M
12 °C 10 km+ 2.000 ft 090° 090° 11 kt METAR LFMK 271800Z AUTO 09011KT 9999 BKN020 BKN026 BKN240 12/09 Q1019 NOSIG
18:30
M
12 °C 10 km+ 2.100 ft 090° 090° 12 kt METAR LFMK 271730Z AUTO 09012KT 060V130 9999 BKN021 BKN034 OVC240 12/09 Q1019 NOSIG
18:00
M
12 °C 10 km+ 2.000 ft 090° 090° 11 kt METAR LFMK 271700Z AUTO 09011KT 9999 BKN020 OVC034 12/09 Q1019 NOSIG
17:30
M
12 °C 10 km+ 1.900 ft 090° 090° 12 kt METAR LFMK 271630Z AUTO 09012KT 070V130 9999 OVC019 12/09 Q1020 NOSIG
17:00
M
12 °C 10 km+ 2.000 ft 090° 090° 10 kt METAR LFMK 271600Z AUTO 09010KT 060V130 9999 BKN020 OVC028 12/09 Q1020 NOSIG
16:30
M
12 °C 10 km+ 2.100 ft 090° 090° 9 kt METAR LFMK 271530Z AUTO 09009KT 060V150 9999 OVC021 12/08 Q1020 NOSIG
16:00
M
12 °C 10 km+ 2.100 ft 090° 090° 10 kt METAR LFMK 271500Z AUTO 09010KT 060V120 9999 OVC021 12/08 Q1021 NOSIG
15:30
M
12 °C 10 km+ 2.300 ft 090° 090° 9 kt METAR LFMK 271430Z AUTO 09009KT 9999 OVC023 12/08 Q1021 NOSIG
15:00
M
11 °C 10 km+ 2.100 ft 090° 090° 10 kt METAR LFMK 271400Z AUTO 09010KT 070V130 9999 OVC021 11/07 Q1021 NOSIG
14:30
M
11 °C 10 km+ 2.000 ft 100° 100° 9 kt METAR LFMK 271330Z AUTO 10009KT 070V130 9999 OVC020 11/06 Q1021 NOSIG
14:00
M
11 °C 10 km+ 2.000 ft 100° 100° 8 kt METAR LFMK 271300Z AUTO 10008KT 060V130 9999 OVC020 11/05 Q1022 NOSIG
13:30
M
11 °C 10 km+ 2.000 ft 090° 090° 10 kt METAR LFMK 271230Z AUTO 09010KT 070V130 9999 OVC020 11/05 Q1022 NOSIG
13:00
M
11 °C 10 km+ 2.200 ft 090° 090° 10 kt METAR LFMK 271200Z AUTO 09010KT 060V120 9999 BKN022 OVC027 11/05 Q1023 NOSIG
12:30
M
10 °C 10 km+ 2.200 ft 090° 090° 9 kt METAR LFMK 271130Z AUTO 09009KT 070V130 9999 BKN022 OVC027 10/04 Q1023 NOSIG
12:00
M
10 °C 10 km+ 2.300 ft 090° 090° 10 kt METAR LFMK 271100Z AUTO 09010KT 070V130 9999 OVC023 10/04 Q1024 NOSIG
11:30
M
10 °C 10 km+ 2.300 ft 100° 100° 10 kt METAR LFMK 271030Z AUTO 10010KT 070V140 9999 OVC023 10/03 Q1024 NOSIG
11:00
M
9 °C 10 km+ 2.300 ft 100° 100° 10 kt METAR LFMK 271000Z AUTO 10010KT 070V140 9999 OVC023 09/03 Q1025 NOSIG

我们和第三方通过cookies跟踪您在我们网站上的互联网行为。如果你继续,我们认为你同意我们的饼干政策